Time;durP1;ratioP1;P1;durP2;ratioP2;P2;SDS_P1;SDS_P2;PMS_P1;PMS_P2;Temp;Humidity;BMP_temperature;BMP_pressure;BME280_temperature;BME280_humidity;BME280_pressure;Samples;Min_cycle;Max_cycle;Signal;HPM_P1;HPM_P2
2021/04/01 00:01:25;;;;;;;1.13;1.00;;;;;;;8.13;53.88;93760.47;5041945;28;20010;-44
2021/04/01 00:03:50;;;;;;;1.48;1.38;;;;;;;8.23;53.52;93753.28;5042860;28;20476;-42
2021/04/01 00:06:17;;;;;;;1.13;1.10;;;;;;;8.09;54.96;93747.03;5043566;28;20034;-43
2021/04/01 00:08:42;;;;;;;0.57;0.57;;;;;;;8.04;54.65;93749.84;5042006;28;20049;-44
2021/04/01 00:11:09;;;;;;;1.92;1.83;;;;;;;8.07;55.26;93744.06;5041262;28;20512;-43
2021/04/01 00:13:35;;;;;;;5.38;1.23;;;;;;;8.08;54.10;93739.28;5040174;28;20057;-45
2021/04/01 00:16:00;;;;;;;0.82;0.82;;;;;;;8.19;53.32;93737.09;5041922;28;20048;-43
2021/04/01 00:18:26;;;;;;;2.33;2.22;;;;;;;8.11;53.99;93741.75;5041505;28;20018;-43
2021/04/01 00:20:51;;;;;;;3.40;2.53;;;;;;;8.05;54.00;93741.09;5052903;28;20030;-43
2021/04/01 00:23:16;;;;;;;1.10;0.98;;;;;;;8.24;53.37;93735.53;5053160;28;20029;-44
2021/04/01 00:25:42;;;;;;;1.00;0.98;;;;;;;7.87;53.81;93735.63;5053098;28;20413;-43
2021/04/01 00:28:08;;;;;;;0.35;0.35;;;;;;;7.85;54.58;93730.69;5053069;28;20402;-45
2021/04/01 00:30:33;;;;;;;1.20;1.20;;;;;;;7.52;54.81;93734.66;5053044;28;20098;-45
2021/04/01 00:32:59;;;;;;;0.85;0.85;;;;;;;7.58;55.20;93727.09;5052881;28;20025;-45
2021/04/01 00:35:24;;;;;;;4.45;2.55;;;;;;;7.82;54.56;93737.22;5052949;28;20029;-44
2021/04/01 00:37:50;;;;;;;0.98;0.93;;;;;;;7.84;56.05;93737.44;5052902;28;20398;-44
2021/04/01 00:40:16;;;;;;;1.35;1.25;;;;;;;7.87;56.54;93738.38;5052607;28;20071;-48
2021/04/01 00:42:41;;;;;;;0.70;0.70;;;;;;;7.79;56.53;93724.53;5052488;28;20070;-46
2021/04/01 00:45:09;;;;;;;1.65;1.55;;;;;;;7.82;56.38;93722.75;5052421;28;20024;-44
2021/04/01 00:47:40;;;;;;;0.47;0.47;;;;;;;7.78;56.11;93714.78;5052468;28;20064;-43
2021/04/01 00:50:09;;;;;;;0.90;0.90;;;;;;;7.76;56.22;93709.06;5051971;28;20021;-43
2021/04/01 00:52:35;;;;;;;2.95;2.15;;;;;;;7.84;54.49;93706.47;5051721;28;20033;-43
2021/04/01 00:55:01;;;;;;;0.90;0.90;;;;;;;7.87;54.03;93708.91;5052543;28;20036;-46
2021/04/01 00:57:27;;;;;;;1.52;1.20;;;;;;;7.93;53.84;93695.06;5052224;28;20531;-46
2021/04/01 00:59:54;;;;;;;1.15;1.00;;;;;;;8.01;53.82;93695.94;5051709;28;20021;-45
2021/04/01 01:02:19;;;;;;;1.27;1.15;;;;;;;7.92;54.69;93685.34;5052391;28;20017;-45
2021/04/01 01:04:45;;;;;;;0.70;0.70;;;;;;;7.94;54.67;93682.78;5051940;28;20068;-45
2021/04/01 01:07:10;;;;;;;4.35;2.00;;;;;;;7.93;55.04;93675.81;5034443;28;20095;-45
2021/04/01 01:09:36;;;;;;;1.00;0.95;;;;;;;7.97;55.02;93665.25;5051964;28;20521;-45
2021/04/01 01:12:01;;;;;;;1.10;0.85;;;;;;;7.73;55.27;93679.16;5051866;28;20025;-45
2021/04/01 01:14:27;;;;;;;1.42;1.17;;;;;;;7.68;56.31;93671.75;5052128;28;20062;-45
2021/04/01 01:16:53;;;;;;;0.55;0.55;;;;;;;7.78;55.39;93664.56;5052183;28;20394;-46
2021/04/01 01:19:18;;;;;;;2.10;1.85;;;;;;;7.63;56.05;93673.31;5051770;28;20031;-45
2021/04/01 01:21:47;;;;;;;0.45;0.45;;;;;;;7.64;56.56;93669.31;5051745;28;20028;-44
2021/04/01 01:24:16;;;;;;;0.70;0.70;;;;;;;7.69;56.72;93662.97;5051771;28;20035;-45
2021/04/01 01:26:43;;;;;;;0.47;0.47;;;;;;;7.57;56.30;93667.16;5051963;28;20112;-44
2021/04/01 01:29:10;;;;;;;1.30;1.23;;;;;;;7.72;56.75;93656.44;5051667;28;20060;-44
2021/04/01 01:31:45;;;;;;;2.03;1.20;;;;;;;7.70;55.95;93650.72;5051856;28;20075;-47
2021/04/01 01:34:11;;;;;;;2.15;2.05;;;;;;;7.69;55.97;93649.22;5051845;28;20033;-44
2021/04/01 01:36:36;;;;;;;0.52;0.52;;;;;;;7.45;56.81;93647.38;5051776;28;20409;-42
2021/04/01 01:39:02;;;;;;;1.05;1.05;;;;;;;7.47;57.87;93635.88;5051441;28;20489;-46
2021/04/01 01:41:27;;;;;;;1.15;1.15;;;;;;;7.64;56.90;93633.59;5051413;28;20025;-44
2021/04/01 01:43:54;;;;;;;0.73;0.73;;;;;;;7.65;56.91;93632.31;5051361;28;20021;-46
2021/04/01 01:46:19;;;;;;;1.15;0.90;;;;;;;7.31;57.12;93640.34;5051671;28;20028;-45
2021/04/01 01:48:45;;;;;;;0.63;0.60;;;;;;;7.23;57.73;93631.25;5051597;28;20429;-45
2021/04/01 01:51:10;;;;;;;0.50;0.50;;;;;;;7.07;56.75;93626.00;5051134;28;20025;-46
2021/04/01 01:53:36;;;;;;;1.60;1.50;;;;;;;7.19;55.84;93624.59;5051165;28;20086;-44
2021/04/01 01:56:02;;;;;;;0.98;0.70;;;;;;;7.28;57.32;93619.41;5051445;28;20055;-47
2021/04/01 01:58:27;;;;;;;0.95;0.95;;;;;;;6.80;58.19;93625.13;5051048;28;20518;-46
2021/04/01 02:00:55;;;;;;;1.45;1.35;;;;;;;6.93;58.22;93625.19;5051373;28;20025;-45
2021/04/01 02:03:23;;;;;;;0.88;0.88;;;;;;;6.67;58.69;93630.56;5051201;28;20044;-44
2021/04/01 02:05:48;;;;;;;0.80;0.80;;;;;;;6.52;58.59;93633.00;5051013;28;20579;-47
2021/04/01 02:08:14;;;;;;;0.47;0.47;;;;;;;6.55;58.13;93631.94;5050869;28;20033;-43
2021/04/01 02:10:51;;;;;;;0.65;0.65;;;;;;;6.78;57.93;93633.13;5050162;28;20116;-47
2021/04/01 02:13:19;;;;;;;0.52;0.52;;;;;;;6.84;57.08;93633.81;5051166;28;20029;-44
2021/04/01 02:15:46;;;;;;;0.82;0.80;;;;;;;7.05;56.16;93640.25;5050875;28;20017;-45
2021/04/01 02:18:15;;;;;;;1.52;0.70;;;;;;;7.04;57.95;93646.28;5051104;28;20051;-46
2021/04/01 02:20:46;;;;;;;1.33;1.33;;;;;;;7.05;58.85;93643.00;5050773;28;20025;-45
2021/04/01 02:23:14;;;;;;;1.63;1.40;;;;;;;7.05;58.32;93626.53;5049891;28;20533;-47
2021/04/01 02:25:40;;;;;;;1.15;1.15;;;;;;;7.07;59.15;93634.97;5050604;28;20028;-47
2021/04/01 02:28:06;;;;;;;4.95;2.08;;;;;;;7.08;57.97;93630.22;5050986;28;20021;-45
2021/04/01 02:30:36;;;;;;;1.45;1.10;;;;;;;7.09;57.92;93623.47;5051011;28;20033;-43
2021/04/01 02:33:02;;;;;;;0.73;0.73;;;;;;;7.02;57.79;93616.56;5050773;28;20017;-45
2021/04/01 02:35:28;;;;;;;1.67;1.58;;;;;;;6.97;58.10;93622.16;5050585;28;20063;-43
2021/04/01 02:37:53;;;;;;;1.35;1.27;;;;;;;6.80;58.94;93630.59;5050839;28;20068;-43
2021/04/01 02:40:19;;;;;;;1.25;1.25;;;;;;;6.42;60.70;93626.38;5050851;28;20055;-44
2021/04/01 02:42:45;;;;;;;1.30;1.27;;;;;;;6.54;59.01;93636.69;5050864;28;20024;-46
2021/04/01 02:45:11;;;;;;;0.85;0.85;;;;;;;6.70;59.04;93635.75;5050808;28;20463;-43
2021/04/01 02:47:37;;;;;;;1.67;1.58;;;;;;;6.82;58.78;93628.09;5050610;28;20025;-43
2021/04/01 02:50:04;;;;;;;2.15;1.25;;;;;;;6.76;57.43;93621.94;5050763;28;20036;-43
2021/04/01 02:52:29;;;;;;;0.68;0.65;;;;;;;6.97;56.37;93633.13;5050634;28;20405;-44
2021/04/01 02:54:55;;;;;;;1.00;1.00;;;;;;;7.00;56.83;93627.34;5050672;28;20100;-45
2021/04/01 02:57:20;;;;;;;0.90;0.90;;;;;;;6.95;57.68;93630.94;5050329;28;20017;-43
2021/04/01 02:59:46;;;;;;;0.82;0.82;;;;;;;6.88;56.63;93634.25;5050670;28;20063;-44
2021/04/01 03:02:14;;;;;;;1.25;1.17;;;;;;;6.99;56.66;93634.09;5050618;28;20100;-43
2021/04/01 03:04:39;;;;;;;0.65;0.65;;;;;;;7.06;57.48;93632.75;5050281;28;20045;-44
2021/04/01 03:07:05;;;;;;;0.88;0.88;;;;;;;7.10;57.76;93635.94;5050635;28;20047;-47
2021/04/01 03:09:31;;;;;;;1.95;1.13;;;;;;;7.16;58.49;93631.84;5050320;28;20028;-46
2021/04/01 03:11:56;;;;;;;1.33;1.23;;;;;;;7.11;58.40;93640.91;5050451;28;20021;-45
2021/04/01 03:14:22;;;;;;;2.50;1.70;;;;;;;7.24;57.20;93629.22;5050492;28;20478;-44
2021/04/01 03:16:47;;;;;;;2.60;2.28;;;;;;;7.23;56.68;93633.25;5050206;28;20044;-45
2021/04/01 03:19:12;;;;;;;2.80;2.60;;;;;;;7.34;57.47;93628.31;5050147;28;20123;-43
2021/04/01 03:21:38;;;;;;;0.70;0.70;;;;;;;7.31;58.50;93626.63;5051760;28;20068;-45
2021/04/01 03:24:04;;;;;;;2.70;1.73;;;;;;;7.31;57.34;93626.63;5054276;28;20497;-46
2021/04/01 03:26:30;;;;;;;2.72;2.53;;;;;;;7.33;56.76;93628.84;5054256;28;20076;-43
2021/04/01 03:28:55;;;;;;;1.05;0.88;;;;;;;7.36;57.38;93627.81;5053923;28;20061;-45
2021/04/01 03:31:21;;;;;;;0.98;0.95;;;;;;;7.32;57.24;93628.09;5054190;28;20056;-45
2021/04/01 03:33:46;;;;;;;1.98;1.88;;;;;;;7.39;55.98;93630.22;5051657;28;20409;-45
2021/04/01 03:36:13;;;;;;;1.08;1.02;;;;;;;7.31;56.54;93625.88;5033918;28;20576;-47
2021/04/01 03:38:38;;;;;;;1.05;1.05;;;;;;;6.96;57.56;93626.16;5033957;28;20505;-45
2021/04/01 03:41:03;;;;;;;0.55;0.55;;;;;;;6.69;58.94;93622.56;5034036;28;20056;-44
2021/04/01 03:43:29;;;;;;;0.63;0.57;;;;;;;6.49;58.55;93628.53;5033955;28;20029;-46
2021/04/01 03:45:55;;;;;;;0.98;0.98;;;;;;;6.65;58.72;93627.56;5033937;28;20017;-45
2021/04/01 03:48:21;;;;;;;0.82;0.82;;;;;;;6.74;58.41;93624.47;5033673;28;20025;-43
2021/04/01 03:50:46;;;;;;;0.40;0.40;;;;;;;6.77;59.99;93637.16;5033914;28;20029;-43
2021/04/01 03:53:12;;;;;;;0.75;0.75;;;;;;;6.92;58.15;93625.72;5033767;28;20037;-43
2021/04/01 03:55:39;;;;;;;0.93;0.93;;;;;;;6.91;57.85;93629.75;5032550;28;20041;-44
2021/04/01 04:11:19;;;;;;;2.00;1.58;;;;;;;6.68;61.02;93649.25;5033628;28;20041;-42
2021/04/01 04:16:09;;;;;;;3.53;3.33;;;;;;;6.92;59.95;93644.94;5033494;28;20472;-45
2021/04/01 04:18:35;;;;;;;6.07;4.13;;;;;;;7.03;61.38;93650.25;5033374;28;20033;-43
2021/04/01 04:21:00;;;;;;;2.72;2.53;;;;;;;6.99;60.95;93655.31;5032981;28;20426;-45
2021/04/01 04:23:26;;;;;;;2.00;1.85;;;;;;;7.02;60.17;93652.25;5032970;28;20018;-45
2021/04/01 04:25:54;;;;;;;7.15;2.25;;;;;;;7.08;60.04;93641.94;5046351;28;20163;-44
2021/04/01 04:28:32;;;;;;;1.35;1.35;;;;;;;6.74;60.37;93655.38;5049245;28;20037;-44
2021/04/01 04:30:58;;;;;;;1.15;1.15;;;;;;;6.92;59.76;93656.66;5043978;28;20029;-47
2021/04/01 04:33:23;;;;;;;1.50;1.40;;;;;;;6.95;59.35;93641.16;5042313;28;20104;-46
2021/04/01 04:35:49;;;;;;;2.75;1.67;;;;;;;6.80;57.96;93647.06;5041474;28;20175;-44
2021/04/01 04:38:14;;;;;;;0.50;0.50;;;;;;;6.89;58.27;93652.19;5037757;28;20126;-45
2021/04/01 04:40:41;;;;;;;1.40;1.30;;;;;;;6.95;58.65;93652.88;5032959;28;20030;-42
2021/04/01 04:43:06;;;;;;;1.92;1.30;;;;;;;7.06;57.23;93647.22;5034738;28;20728;-45
2021/04/01 04:45:31;;;;;;;1.77;1.67;;;;;;;7.07;56.43;93653.44;5051309;28;20033;-43
2021/04/01 04:47:57;;;;;;;4.53;2.08;;;;;;;7.29;57.51;93642.88;5050866;28;20065;-45
2021/04/01 04:50:22;;;;;;;1.23;1.23;;;;;;;7.33;55.23;93640.56;5044981;28;20043;-47
2021/04/01 04:52:48;;;;;;;1.63;1.38;;;;;;;7.38;56.54;93648.00;5052054;28;20025;-46
2021/04/01 04:55:13;;;;;;;1.33;1.33;;;;;;;7.49;55.45;93656.03;5051583;28;20102;-43
2021/04/01 04:57:52;;;;;;;0.93;0.93;;;;;;;7.54;55.43;93655.22;5052016;28;20110;-42
2021/04/01 05:05:39;;;;;;;1.35;1.35;;;;;;;7.91;53.60;93659.09;5051475;28;20060;-43
2021/04/01 05:08:05;;;;;;;1.42;1.33;;;;;;;7.94;54.19;93663.56;5051878;28;20417;-44
2021/04/01 05:10:31;;;;;;;2.17;1.23;;;;;;;7.91;54.23;93659.09;5047300;28;20028;-47
2021/04/01 05:13:09;;;;;;;0.57;0.57;;;;;;;7.91;53.98;93654.34;5043506;28;20028;-42
2021/04/01 05:15:41;;;;;;;0.52;0.52;;;;;;;8.05;54.16;93655.84;5041999;28;20037;-43
2021/04/01 05:18:20;;;;;;;0.75;0.75;;;;;;;8.18;54.89;93655.88;5051542;28;20025;-43
2021/04/01 05:20:47;;;;;;;2.20;2.10;;;;;;;7.97;55.24;93651.50;5050429;28;20545;-44
2021/04/01 05:25:49;;;;;;;3.50;2.85;;;;;;;7.98;54.51;93661.97;5037509;28;20445;-44
2021/04/01 05:28:26;;;;;;;5.30;4.30;;;;;;;8.11;55.71;93653.00;5031021;28;20031;-45
2021/04/01 05:30:52;;;;;;;6.68;5.03;;;;;;;8.19;55.30;93656.59;5033222;28;20033;-47
2021/04/01 05:33:18;;;;;;;8.80;5.45;;;;;;;8.27;55.42;93663.00;5050797;28;20037;-47
2021/04/01 05:35:44;;;;;;;4.45;4.00;;;;;;;8.22;56.41;93655.53;5051309;28;20111;-44
2021/04/01 05:38:09;;;;;;;12.52;6.22;;;;;;;8.27;55.98;93663.00;5051277;28;20537;-44
2021/04/01 05:40:35;;;;;;;6.75;5.43;;;;;;;8.24;55.92;93664.75;5050892;28;20039;-45
2021/04/01 05:43:08;;;;;;;5.70;3.20;;;;;;;8.53;55.79;93657.47;5050605;28;20059;-45
2021/04/01 05:48:16;;;;;;;6.78;6.18;;;;;;;8.56;54.83;93655.66;5050861;28;20517;-45
2021/04/01 05:51:19;;;;;;;4.28;2.78;;;;;;;8.56;55.47;93653.66;5031493;28;20029;-42
2021/04/01 06:06:53;;;;;;;4.05;2.47;;;;;;;8.97;55.29;93662.06;5051107;28;20036;-42
2021/04/01 06:09:25;;;;;;;1.55;1.20;;;;;;;9.12;55.06;93675.25;5048233;28;20489;-44
2021/04/01 06:11:56;;;;;;;6.00;2.50;;;;;;;9.32;54.14;93671.81;5042226;28;20048;-46
2021/04/01 06:14:35;;;;;;;2.17;1.67;;;;;;;9.56;53.76;93679.78;5039404;28;20418;-44
2021/04/01 06:17:05;;;;;;;1.20;1.10;;;;;;;9.63;52.31;93670.84;5036417;28;20116;-43
2021/04/01 06:19:38;;;;;;;2.75;2.60;;;;;;;9.80;50.82;93678.72;5047711;28;20041;-46
2021/04/01 06:22:06;;;;;;;2.30;2.10;;;;;;;9.66;51.63;93682.81;5043133;28;20075;-43
2021/04/01 06:24:34;;;;;;;8.05;2.47;;;;;;;9.76;51.65;93683.84;5030832;28;20028;-45
2021/04/01 06:29:39;;;;;;;1.67;1.38;;;;;;;9.57;49.59;93697.06;5030264;28;20036;-45
2021/04/01 06:32:16;;;;;;;1.33;1.33;;;;;;;9.88;50.81;93687.78;5047992;28;20107;-41
2021/04/01 06:34:43;;;;;;;1.80;1.60;;;;;;;10.20;51.49;93687.53;5029994;28;20033;-41
2021/04/01 06:37:48;;;;;;;1.63;1.52;;;;;;;10.47;50.79;93695.09;5030014;28;20033;-43
2021/04/01 06:40:14;;;;;;;1.38;1.27;;;;;;;11.25;49.69;93698.44;5047702;28;20025;-44
2021/04/01 06:42:54;;;;;;;2.63;2.42;;;;;;;12.09;47.57;93689.81;5047825;28;20391;-43
2021/04/01 06:45:23;;;;;;;0.82;0.82;;;;;;;12.65;44.47;93685.16;5029266;28;20029;-43
2021/04/01 06:47:50;;;;;;;;;;;;;;;13.01;41.98;93702.25;5029828;28;20032;-43
2021/04/01 06:50:23;;;;;;;1.55;1.48;;;;;;;13.21;41.75;93695.75;5047022;28;19957;-42
2021/04/01 06:53:01;;;;;;;2.92;2.00;;;;;;;13.73;40.67;93701.63;5039500;28;20394;-42
2021/04/01 06:55:53;;;;;;;0.45;0.45;;;;;;;13.96;39.75;93707.78;5031385;28;20029;-44
2021/04/01 06:58:36;;;;;;;1.20;1.15;;;;;;;15.57;36.36;93704.50;5055438;28;20517;-44
2021/04/01 07:01:06;;;;;;;0.73;0.73;;;;;;;16.96;34.15;93704.81;5026321;28;20040;-41
2021/04/01 07:03:41;;;;;;;1.05;1.02;;;;;;;18.07;30.76;93696.88;5032459;28;20036;-43
2021/04/01 07:06:13;;;;;;;2.30;2.10;;;;;;;19.44;28.85;93711.84;5051377;28;20098;-43
2021/04/01 07:11:32;;;;;;;1.40;1.30;;;;;;;20.19;25.95;93708.19;5051561;28;20147;-44
2021/04/01 07:14:11;;;;;;;1.85;1.60;;;;;;;20.17;25.45;93722.84;5050927;28;20040;-44
2021/04/01 07:48:43;;;;;;;2.35;1.63;;;;;;;20.02;22.32;93705.72;5028425;28;20061;-43
2021/04/01 07:53:59;;;;;;;2.65;2.45;;;;;;;22.32;22.06;93692.75;5038998;28;20030;-46
2021/04/01 07:56:39;;;;;;;2.63;1.45;;;;;;;23.47;21.03;93690.38;5023287;28;20502;-45
2021/04/01 08:01:53;;;;;;;3.47;3.17;;;;;;;24.79;17.41;93673.44;5039869;28;20112;-45
2021/04/01 08:04:20;;;;;;;3.65;3.38;;;;;;;25.13;18.51;93677.06;5046896;28;20500;-43
2021/04/01 08:06:45;;;;;;;3.38;1.30;;;;;;;25.21;16.33;93660.44;5034058;28;20028;-41
2021/04/01 08:09:20;;;;;;;1.40;1.30;;;;;;;24.56;15.92;93654.00;5033549;28;20070;-43
2021/04/01 08:11:51;;;;;;;1.35;1.20;;;;;;;23.61;15.54;93653.69;5053165;28;20021;-47
2021/04/01 08:14:24;;;;;;;0.63;0.55;;;;;;;23.85;17.01;93652.03;5044069;28;20037;-45
2021/04/01 08:17:42;;;;;;;1.52;1.00;;;;;;;25.13;16.35;93662.19;5033454;28;20062;-44
2021/04/01 08:19:38;;;;;;;0.95;0.95;;;;;;;23.99;15.03;93664.75;5045155;28;20068;-41
2021/04/01 08:22:15;;;;;;;1.65;1.15;;;;;;;24.08;14.95;93677.88;5052456;28;20029;-42
2021/04/01 08:24:48;;;;;;;1.88;0.95;;;;;;;24.80;14.71;93674.91;5052949;28;20052;-43
2021/04/01 08:27:27;;;;;;;0.63;0.63;;;;;;;24.29;15.43;93679.56;5051375;28;20506;-43
2021/04/01 08:35:25;;;;;;;1.50;1.05;;;;;;;25.25;14.04;93676.88;5044163;28;20021;-43
2021/04/01 08:38:16;;;;;;;0.57;0.57;;;;;;;25.67;13.36;93675.84;5043664;28;20021;-42
2021/04/01 08:40:41;;;;;;;0.80;0.80;;;;;;;25.69;11.94;93683.69;5051660;28;20045;-42
2021/04/01 08:46:45;;;;;;;1.10;1.10;;;;;;;25.57;12.84;93672.59;5004461;28;20029;-41
2021/04/01 08:49:16;;;;;;;1.00;0.95;;;;;;;26.48;14.32;93671.38;5026437;28;20529;-41
2021/04/01 08:52:02;;;;;;;0.70;0.70;;;;;;;27.01;13.47;93668.41;5049258;28;20102;-42
2021/04/01 08:54:34;;;;;;;0.77;0.77;;;;;;;27.08;13.88;93670.09;5008124;28;20096;-42
2021/04/01 08:57:07;;;;;;;0.90;0.70;;;;;;;27.48;11.55;93663.03;5044837;28;20048;-43
2021/04/01 08:59:51;;;;;;;1.33;0.95;;;;;;;28.03;11.54;93662.03;5024637;28;20413;-43
2021/04/01 09:02:24;;;;;;;1.48;1.38;;;;;;;27.55;11.74;93661.13;5037201;28;20057;-44
2021/04/01 09:04:51;;;;;;;2.55;1.23;;;;;;;27.89;13.11;93667.97;5042335;28;20075;-43
2021/04/01 09:07:36;;;;;;;1.60;1.23;;;;;;;28.97;12.46;93652.91;5049675;28;20028;-47
2021/04/01 09:10:21;;;;;;;1.75;1.38;;;;;;;29.26;11.37;93658.00;5051591;28;20025;-45
2021/04/01 09:13:05;;;;;;;0.98;0.82;;;;;;;28.49;9.52;93661.41;5027820;28;20502;-44
2021/04/01 09:15:47;;;;;;;0.82;0.82;;;;;;;27.82;12.02;93662.75;5042704;28;20456;-44
2021/04/01 09:18:25;;;;;;;0.47;0.47;;;;;;;28.38;11.55;93644.72;5048899;28;20063;-43
2021/04/01 09:20:52;;;;;;;1.52;1.17;;;;;;;28.57;11.05;93658.09;5045283;28;20029;-43
2021/04/01 09:23:21;;;;;;;1.00;0.70;;;;;;;28.22;10.26;93652.75;5040492;28;20095;-44
2021/04/01 09:25:49;;;;;;;;;;;;;;;28.02;10.86;93652.09;5046715;28;20028;-45
2021/04/01 09:28:15;;;;;;;0.47;0.47;;;;;;;26.43;10.27;93655.59;5051536;28;19916;-42
2021/04/01 09:30:42;;;;;;;3.10;0.75;;;;;;;26.23;11.15;93654.78;5049231;28;20283;-42
2021/04/01 09:33:25;;;;;;;0.40;0.40;;;;;;;27.02;12.61;93644.38;5032982;28;20112;-44
2021/04/01 09:36:04;;;;;;;1.75;1.65;;;;;;;28.02;12.39;93646.41;5034346;28;20055;-45
2021/04/01 09:38:36;;;;;;;0.65;0.60;;;;;;;27.28;10.02;93644.56;5050502;28;20044;-43
2021/04/01 09:41:02;;;;;;;0.57;0.57;;;;;;;27.77;10.95;93637.06;5050216;28;20044;-44
2021/04/01 09:43:27;;;;;;;1.38;0.50;;;;;;;28.19;9.01;93642.69;5050635;28;20052;-43
2021/04/01 09:45:58;;;;;;;1.92;0.95;;;;;;;27.29;9.20;93626.88;5050448;28;20087;-42
2021/04/01 09:48:30;;;;;;;0.32;0.32;;;;;;;26.00;10.32;93638.28;5050815;28;20489;-41
2021/04/01 09:51:00;;;;;;;0.60;0.60;;;;;;;26.49;10.76;93641.66;5033198;28;20052;-43
2021/04/01 09:53:26;;;;;;;1.42;1.33;;;;;;;27.32;10.44;93633.34;5050848;28;20025;-41
2021/04/01 09:55:54;;;;;;;0.60;0.60;;;;;;;26.82;10.18;93640.78;5051150;28;20021;-41
2021/04/01 09:58:36;;;;;;;0.55;0.55;;;;;;;26.97;11.33;93632.16;5064541;28;20039;-41
2021/04/01 10:04:00;;;;;;;0.93;0.93;;;;;;;28.65;11.28;93620.69;5041530;28;20128;-41
2021/04/01 10:06:49;;;;;;;1.25;0.50;;;;;;;28.60;10.59;93617.00;5044283;28;20031;-42
2021/04/01 10:09:18;;;;;;;0.43;0.43;;;;;;;28.08;10.26;93624.63;5041865;28;20075;-43
2021/04/01 10:11:55;;;;;;;0.20;0.20;;;;;;;26.75;9.29;93617.16;5030800;28;20513;-43
2021/04/01 10:14:21;;;;;;;0.93;0.93;;;;;;;25.08;12.97;93618.19;5034519;28;20143;-47
2021/04/01 10:16:50;;;;;;;2.00;1.50;;;;;;;25.19;11.06;93608.75;5030812;28;20100;-46
2021/04/01 10:19:18;;;;;;;0.82;0.80;;;;;;;24.02;12.56;93621.16;5050708;28;20032;-48
2021/04/01 10:21:45;;;;;;;1.15;1.15;;;;;;;23.48;12.82;93612.16;5050954;28;20052;-49
2021/04/01 10:24:25;;;;;;;1.35;1.25;;;;;;;24.44;12.55;93611.13;5050701;28;20052;-45
2021/04/01 10:26:57;;;;;;;1.98;1.73;;;;;;;25.43;12.71;93598.50;5051001;28;20067;-49
2021/04/01 10:29:40;;;;;;;2.70;0.88;;;;;;;25.80;11.99;93600.69;5050052;28;20055;-48
2021/04/01 10:32:07;;;;;;;0.43;0.43;;;;;;;25.71;11.55;93596.13;5048961;28;20020;-46
2021/04/01 10:34:44;;;;;;;0.70;0.70;;;;;;;26.30;10.82;93588.56;5050045;28;20417;-45
2021/04/01 10:37:12;;;;;;;1.25;1.00;;;;;;;26.75;11.06;93588.84;5049887;28;20153;-46
2021/04/01 10:39:39;;;;;;;0.70;0.70;;;;;;;27.43;11.53;93593.38;5039442;28;20056;-50
2021/04/01 10:42:10;;;;;;;1.88;0.85;;;;;;;27.63;10.31;93584.81;5040396;28;20032;-49
2021/04/01 10:44:37;;;;;;;0.80;0.47;;;;;;;27.59;11.19;93579.03;5041935;28;20079;-46
2021/04/01 10:47:05;;;;;;;0.50;0.50;;;;;;;27.40;9.88;93577.69;5030914;28;20490;-49
2021/04/01 10:49:32;;;;;;;3.38;0.90;;;;;;;25.39;9.64;93579.25;5035147;28;20032;-47
2021/04/01 10:52:03;;;;;;;0.28;0.28;;;;;;;25.13;10.48;93580.25;5032272;28;20044;-46
2021/04/01 10:54:47;;;;;;;1.67;1.40;;;;;;;26.39;12.43;93578.25;5052811;28;20025;-48
2021/04/01 10:57:33;;;;;;;0.85;0.73;;;;;;;26.67;13.03;93576.47;5049403;28;20025;-50
2021/04/01 11:00:00;;;;;;;0.45;0.45;;;;;;;26.97;13.35;93574.75;5049212;28;20099;-50
2021/04/01 11:02:46;;;;;;;0.80;0.80;;;;;;;26.91;12.95;93580.94;5027181;28;20421;-48
2021/04/01 11:05:16;;;;;;;7.57;2.80;;;;;;;26.23;12.44;93570.63;5048649;28;20084;-51
2021/04/01 11:07:47;;;;;;;0.93;0.93;;;;;;;26.37;12.01;93573.25;5043674;28;20017;-48
2021/04/01 11:10:33;;;;;;;0.57;0.57;;;;;;;26.42;11.81;93565.63;5029681;28;20434;-46
2021/04/01 11:13:00;;;;;;;0.80;0.80;;;;;;;26.07;13.53;93569.25;5033693;28;20029;-47
2021/04/01 11:15:30;;;;;;;1.55;1.45;;;;;;;26.58;10.98;93569.78;5037850;28;20032;-49
2021/04/01 11:18:01;;;;;;;0.82;0.82;;;;;;;27.00;10.43;93562.09;5039394;28;20103;-50
2021/04/01 11:20:41;;;;;;;0.95;0.77;;;;;;;26.83;10.96;93568.59;5034334;28;20025;-47
2021/04/01 11:23:09;;;;;;;0.88;0.88;;;;;;;26.55;11.46;93559.03;5040107;28;20457;-49
2021/04/01 11:25:36;;;;;;;2.08;1.98;;;;;;;25.84;11.14;93544.28;5035073;28;20566;-48
2021/04/01 11:28:02;;;;;;;1.15;0.70;;;;;;;25.21;11.38;93550.22;5032187;28;20513;-48
2021/04/01 11:30:49;;;;;;;1.63;0.95;;;;;;;24.93;11.76;93562.47;5043272;28;20067;-48
2021/04/01 11:33:17;;;;;;;0.20;0.20;;;;;;;24.13;12.12;93554.66;5045178;28;20119;-49
2021/04/01 11:35:44;;;;;;;0.70;0.70;;;;;;;23.76;12.88;93557.88;5040887;28;20017;-47
2021/04/01 11:38:17;;;;;;;0.60;0.60;;;;;;;23.99;13.61;93554.75;5043490;28;20035;-47
2021/04/01 11:40:53;;;;;;;0.30;0.30;;;;;;;23.75;13.59;93544.41;5040597;28;20025;-52
2021/04/01 11:43:25;;;;;;;1.15;1.05;;;;;;;24.10;14.04;93548.19;5047107;28;20017;-46
2021/04/01 11:45:50;;;;;;;0.50;0.50;;;;;;;23.78;12.84;93543.88;5044561;28;20091;-50
2021/04/01 11:48:16;;;;;;;0.68;0.47;;;;;;;23.70;14.91;93548.41;5042910;28;20498;-47
2021/04/01 11:50:41;;;;;;;1.05;1.05;;;;;;;23.47;15.50;93549.44;5022136;28;20024;-47
2021/04/01 11:53:08;;;;;;;0.20;0.20;;;;;;;23.41;15.01;93542.78;5025449;28;20024;-46
2021/04/01 11:55:33;;;;;;;0.43;0.43;;;;;;;23.28;14.40;93533.72;5047289;28;20486;-49
2021/04/01 11:57:59;;;;;;;0.80;0.80;;;;;;;22.97;14.36;93536.44;5049100;28;20100;-52
2021/04/01 12:00:30;;;;;;;0.25;0.25;;;;;;;22.86;14.75;93536.53;5043292;28;20083;-49
2021/04/01 12:03:04;;;;;;;0.80;0.80;;;;;;;22.52;16.30;93532.72;5043705;28;20009;-51
2021/04/01 12:05:34;;;;;;;0.63;0.63;;;;;;;22.37;16.08;93519.28;5046173;28;20042;-51
2021/04/01 12:08:00;;;;;;;0.40;0.40;;;;;;;21.97;16.33;93519.94;5030329;28;20021;-47
2021/04/01 12:10:26;;;;;;;0.90;0.57;;;;;;;21.76;17.34;93516.06;5053000;28;20486;-47
2021/04/01 12:12:53;;;;;;;0.40;0.40;;;;;;;21.74;16.78;93520.84;5052956;28;20028;-47
2021/04/01 12:15:36;;;;;;;0.82;0.82;;;;;;;21.78;17.62;93509.81;5043805;28;20108;-50
2021/04/01 12:18:03;;;;;;;0.47;0.47;;;;;;;21.92;15.90;93499.34;5043817;28;20024;-50
2021/04/01 12:20:30;;;;;;;2.03;1.65;;;;;;;21.74;15.97;93503.97;5035889;28;20021;-48
2021/04/01 12:22:56;;;;;;;1.35;0.75;;;;;;;21.46;17.68;93499.63;5032369;28;20021;-47
2021/04/01 12:25:24;;;;;;;0.75;0.75;;;;;;;21.26;16.36;93487.28;5032055;28;20025;-47
2021/04/01 12:27:55;;;;;;;0.77;0.77;;;;;;;21.22;17.44;93492.69;5040579;28;20084;-48
2021/04/01 12:30:25;;;;;;;0.65;0.65;;;;;;;21.08;17.81;93493.34;5041279;28;20033;-48
2021/04/01 12:32:51;;;;;;;0.77;0.73;;;;;;;21.06;17.19;93495.31;5035082;28;20053;-49
2021/04/01 12:35:18;;;;;;;0.50;0.35;;;;;;;20.85;16.50;93489.88;5032449;28;20029;-50
2021/04/01 12:37:56;;;;;;;0.47;0.47;;;;;;;20.71;16.96;93481.38;5032501;28;20022;-51
2021/04/01 12:40:22;;;;;;;0.40;0.40;;;;;;;20.74;17.47;93482.25;4998634;28;20422;-49
2021/04/01 12:42:48;;;;;;;1.42;1.33;;;;;;;20.71;17.98;93480.66;5032566;28;20025;-47
2021/04/01 12:45:23;;;;;;;0.75;0.75;;;;;;;20.81;19.00;93476.34;5036596;28;20430;-48
2021/04/01 12:47:52;;;;;;;0.28;0.28;;;;;;;20.59;18.55;93474.34;5046677;28;20063;-48
2021/04/01 12:50:17;;;;;;;;;;;;;;;20.61;18.73;93471.66;5046715;28;20065;-48
2021/04/01 12:52:51;;;;;;;0.43;0.43;;;;;;;20.49;19.12;93471.69;5023848;28;19956;-47
2021/04/01 12:55:36;;;;;;;0.65;0.65;;;;;;;20.30;17.49;93466.38;5029062;28;20039;-46
2021/04/01 12:58:05;;;;;;;2.55;0.93;;;;;;;20.27;20.05;93470.41;5065180;28;20028;-49
2021/04/01 13:00:52;;;;;;;1.70;1.10;;;;;;;20.16;17.72;93466.25;5032037;28;20566;-48
2021/04/01 13:03:18;;;;;;;0.82;0.82;;;;;;;19.15;17.53;93462.16;5032244;28;20530;-50
2021/04/01 13:05:50;;;;;;;0.60;0.60;;;;;;;19.11;18.42;93452.78;5032058;28;20052;-48
2021/04/01 13:10:44;;;;;;;0.80;0.80;;;;;;;19.18;18.66;93451.81;5043815;28;20485;-48
2021/04/01 13:13:10;;;;;;;0.82;0.82;;;;;;;19.19;18.58;93450.50;5041522;28;20076;-48
2021/04/01 13:15:38;;;;;;;0.73;0.73;;;;;;;18.93;18.35;93450.31;5037820;28;20025;-47
2021/04/01 13:18:05;;;;;;;1.45;1.35;;;;;;;18.99;18.48;93449.97;5031791;28;20107;-51
2021/04/01 13:20:30;;;;;;;0.95;0.95;;;;;;;19.16;19.05;93446.84;5041872;28;20447;-51
2021/04/01 13:23:10;;;;;;;0.93;0.90;;;;;;;19.16;18.57;93438.44;5033409;28;20028;-49
2021/04/01 13:25:36;;;;;;;0.60;0.60;;;;;;;18.88;17.49;93440.19;5050956;28;20539;-51
2021/04/01 13:28:08;;;;;;;0.40;0.40;;;;;;;18.87;18.98;93447.13;5050811;28;20496;-48